createdAt,value
2019-06-20T00:00:37.207Z,100775.44
2019-06-20T00:03:09.020Z,100780.64
2019-06-20T00:05:52.548Z,100780.42
2019-06-20T00:08:42.108Z,100783.36
2019-06-20T00:11:12.387Z,100786.34
2019-06-20T00:13:41.613Z,100794.59
2019-06-20T00:16:11.002Z,100798.03
2019-06-20T00:18:40.210Z,100793.16
2019-06-20T00:21:12.847Z,100802.91
2019-06-20T00:23:45.031Z,100793.73
2019-06-20T00:26:16.695Z,100786.91
2019-06-20T00:28:55.989Z,100785.41
2019-06-20T00:31:31.586Z,100781.03
2019-06-20T00:34:04.022Z,100786.73
2019-06-20T00:36:33.226Z,100792.19
2019-06-20T00:39:10.126Z,100793.19
2019-06-20T00:41:41.438Z,100793.19
2019-06-20T00:44:10.814Z,100776.83
2019-06-20T00:46:40.225Z,100781.99
2019-06-20T00:49:09.395Z,100787.16
2019-06-20T00:51:38.607Z,100793.97
2019-06-20T00:54:07.797Z,100791.96
2019-06-20T00:56:37.031Z,100796.56
2019-06-20T00:59:06.385Z,100781.41
2019-06-20T01:01:35.634Z,100784.50
2019-06-20T01:04:10.819Z,100778.39
2019-06-20T01:06:40.049Z,100783.49
2019-06-20T01:09:09.420Z,100778.75
2019-06-20T01:11:38.663Z,100776.37
2019-06-20T01:14:07.865Z,100774.66
2019-06-20T01:16:38.569Z,100771.22
2019-06-20T01:19:09.327Z,100770.50
2019-06-20T01:21:38.729Z,100771.15
2019-06-20T01:24:09.846Z,100775.74
2019-06-20T01:26:40.079Z,100778.26
2019-06-20T01:29:09.275Z,100784.00
2019-06-20T01:31:40.779Z,100782.68
2019-06-20T01:34:13.275Z,100775.14
2019-06-20T01:36:42.859Z,100769.33
2019-06-20T01:39:11.830Z,100777.30
2019-06-20T01:41:41.999Z,100784.77
2019-06-20T01:44:11.721Z,100780.60
2019-06-20T01:46:42.106Z,100784.52
2019-06-20T01:49:11.282Z,100789.53
2019-06-20T01:51:41.705Z,100793.55
2019-06-20T01:54:11.512Z,100798.92
2019-06-20T01:56:41.324Z,100796.84
2019-06-20T01:59:10.648Z,100800.56
2019-06-20T02:01:39.845Z,100803.29
2019-06-20T02:04:09.041Z,100808.38
2019-06-20T02:06:38.670Z,100814.19
2019-06-20T02:09:09.070Z,100806.13
2019-06-20T02:11:38.492Z,100806.63
2019-06-20T02:14:07.881Z,100800.31
2019-06-20T02:16:38.006Z,100805.19
2019-06-20T02:19:07.540Z,100809.77
2019-06-20T02:21:36.423Z,100805.19
2019-06-20T02:24:07.189Z,100810.55
2019-06-20T02:26:36.505Z,100812.42
2019-06-20T02:29:09.635Z,100821.45
2019-06-20T02:31:40.431Z,100822.81
2019-06-20T02:34:10.345Z,100820.59
2019-06-20T02:36:39.570Z,100820.37
2019-06-20T02:39:10.509Z,100820.79
2019-06-20T02:41:42.114Z,100815.73
2019-06-20T02:44:29.334Z,100826.87
2019-06-20T02:46:46.307Z,100822.42
2019-06-20T02:49:16.478Z,100819.34
2019-06-20T02:51:49.085Z,100831.23
2019-06-20T02:54:20.614Z,100831.52
2019-06-20T02:56:54.564Z,100830.16
2019-06-20T02:59:26.211Z,100827.06
2019-06-20T03:01:55.457Z,100831.16
2019-06-20T03:04:25.125Z,100841.32
2019-06-20T03:06:54.380Z,100838.23
2019-06-20T03:09:23.606Z,100836.02
2019-06-20T03:11:54.732Z,100835.52
2019-06-20T03:14:25.315Z,100839.73
2019-06-20T03:16:54.503Z,100846.55
2019-06-20T03:19:23.774Z,100848.13
2019-06-20T03:21:53.015Z,100851.58
2019-06-20T03:24:22.251Z,100859.48
2019-06-20T03:26:51.517Z,100861.56
2019-06-20T03:29:20.707Z,100857.48
2019-06-20T03:31:51.705Z,100863.92
2019-06-20T03:34:24.224Z,100861.48
2019-06-20T03:36:53.459Z,100867.92
2019-06-20T03:39:22.751Z,100867.06
2019-06-20T03:41:55.042Z,100865.34
2019-06-20T03:44:24.278Z,100872.14
2019-06-20T03:46:53.520Z,100875.01
2019-06-20T03:49:23.019Z,100874.64
2019-06-20T03:51:52.185Z,100872.92
2019-06-20T03:54:21.363Z,100872.92
2019-06-20T03:56:51.739Z,100869.34
2019-06-20T03:59:21.005Z,100877.01
2019-06-20T04:01:50.180Z,100887.27
2019-06-20T04:04:19.776Z,100896.44
2019-06-20T04:06:48.252Z,100899.43
2019-06-20T04:09:17.586Z,100893.26
2019-06-20T04:11:46.917Z,100911.96
2019-06-20T04:14:16.157Z,100904.03
2019-06-20T04:16:46.692Z,100905.66
2019-06-20T04:19:17.354Z,100909.02
2019-06-20T04:21:47.665Z,100918.91
2019-06-20T04:24:16.926Z,100921.64
2019-06-20T04:26:47.278Z,100922.55
2019-06-20T04:29:16.501Z,100930.98
2019-06-20T04:31:46.990Z,100934.70
2019-06-20T04:34:16.222Z,100932.98
2019-06-20T04:36:48.159Z,100932.61
2019-06-20T04:39:19.550Z,100931.25
2019-06-20T04:41:48.431Z,100936.83
2019-06-20T04:44:19.327Z,100933.61
2019-06-20T04:46:56.030Z,100928.53
2019-06-20T04:49:25.749Z,100938.16
2019-06-20T04:51:56.550Z,100933.44
2019-06-20T04:54:25.835Z,100935.75
2019-06-20T04:56:55.114Z,100934.26
2019-06-20T04:59:24.333Z,100936.34
2019-06-20T05:01:53.955Z,100934.35
2019-06-20T05:04:24.150Z,100931.02
2019-06-20T05:07:05.636Z,100940.56
2019-06-20T05:09:35.299Z,100937.92
2019-06-20T05:12:03.748Z,100944.47
2019-06-20T05:14:33.261Z,100939.75
2019-06-20T05:17:06.289Z,100951.37
2019-06-20T05:19:33.431Z,100950.37
2019-06-20T05:22:02.674Z,100953.36
2019-06-20T05:24:31.991Z,100952.86
2019-06-20T05:27:23.476Z,100954.09
2019-06-20T05:29:52.676Z,100958.27
2019-06-20T05:32:22.436Z,100957.03
2019-06-20T05:34:51.788Z,100957.80
2019-06-20T05:37:20.993Z,100961.38
2019-06-20T05:39:50.153Z,100964.70
2019-06-20T05:42:19.365Z,100965.20
2019-06-20T05:44:48.545Z,100962.48
2019-06-20T05:47:17.965Z,100973.02
2019-06-20T05:49:47.366Z,100979.83
2019-06-20T05:52:17.374Z,100981.79
2019-06-20T05:54:46.636Z,100981.79
2019-06-20T05:57:16.155Z,100984.52
2019-06-20T05:59:45.049Z,100981.42
2019-06-20T06:02:14.173Z,100986.37
2019-06-20T06:04:44.001Z,100988.86
2019-06-20T06:07:14.350Z,100992.21
2019-06-20T06:09:43.623Z,100997.75
2019-06-20T06:12:12.939Z,100992.26
2019-06-20T06:14:42.093Z,100994.22
2019-06-20T06:17:11.492Z,100996.58
2019-06-20T06:19:40.717Z,101002.30
2019-06-20T06:22:09.897Z,101004.30
2019-06-20T06:24:40.118Z,100998.20
2019-06-20T06:27:09.376Z,101005.38
2019-06-20T06:29:39.007Z,100999.16
2019-06-20T06:32:09.253Z,100997.39
2019-06-20T06:34:38.654Z,101002.47
2019-06-20T06:37:07.906Z,101001.55
2019-06-20T06:39:42.683Z,100998.78
2019-06-20T06:42:10.859Z,100996.87
2019-06-20T06:44:41.020Z,100998.94
2019-06-20T06:47:10.487Z,100994.66
2019-06-20T06:49:40.883Z,101001.03
2019-06-20T06:52:10.609Z,101000.91
2019-06-20T06:54:40.854Z,101009.44
2019-06-20T06:57:10.322Z,101005.78
2019-06-20T06:59:39.603Z,100998.79
2019-06-20T07:02:08.895Z,101007.05
2019-06-20T07:04:42.027Z,101007.16
2019-06-20T07:07:11.298Z,101012.23
2019-06-20T07:09:40.615Z,101010.97
2019-06-20T07:12:09.916Z,101001.78
2019-06-20T07:14:42.725Z,101012.70
2019-06-20T07:17:12.585Z,101009.18
2019-06-20T07:19:42.778Z,101011.98
2019-06-20T07:22:12.110Z,101015.14
2019-06-20T07:24:42.532Z,101010.09
2019-06-20T07:27:13.583Z,101016.19
2019-06-20T07:29:44.406Z,101017.59
2019-06-20T07:32:13.743Z,101011.91
2019-06-20T07:34:42.463Z,101012.63
2019-06-20T07:37:12.292Z,101016.22
2019-06-20T07:39:42.363Z,101018.22
2019-06-20T07:42:11.695Z,101018.32
2019-06-20T07:44:41.063Z,101021.75
2019-06-20T07:47:17.642Z,101020.63
2019-06-20T07:49:43.919Z,101018.26
2019-06-20T07:52:13.348Z,101023.23
2019-06-20T07:54:43.191Z,101022.78
2019-06-20T07:57:14.170Z,101021.56
2019-06-20T07:59:45.062Z,101020.98
2019-06-20T08:02:15.816Z,101020.83
2019-06-20T08:04:45.004Z,101021.47
2019-06-20T08:07:16.107Z,101026.00
2019-06-20T08:10:10.443Z,101025.19
2019-06-20T08:12:40.062Z,101019.84
2019-06-20T08:15:15.612Z,101025.44
2019-06-20T08:17:47.011Z,101031.11
2019-06-20T08:20:17.217Z,101027.31
2019-06-20T08:22:46.579Z,101026.53
2019-06-20T08:25:18.247Z,101025.08
2019-06-20T08:27:50.913Z,101021.91
2019-06-20T08:30:31.815Z,101028.15
2019-06-20T08:33:04.391Z,101032.55
2019-06-20T08:35:32.943Z,101032.75
2019-06-20T08:38:05.401Z,101033.52
2019-06-20T08:40:46.410Z,101035.18
2019-06-20T08:43:16.028Z,101036.80
2019-06-20T08:45:46.783Z,101035.29
2019-06-20T08:48:16.113Z,101031.99
2019-06-20T08:50:47.152Z,101031.70
2019-06-20T08:53:21.173Z,101034.13
2019-06-20T08:55:50.490Z,101030.27
2019-06-20T08:58:20.049Z,101041.99
2019-06-20T09:00:48.767Z,101043.92
2019-06-20T09:03:18.397Z,101049.63
2019-06-20T09:05:49.418Z,101045.30
2019-06-20T09:08:18.791Z,101045.30
2019-06-20T09:10:47.308Z,101043.67
2019-06-20T09:13:19.543Z,101051.05
2019-06-20T09:15:50.346Z,101045.17
2019-06-20T09:18:21.611Z,101046.11
2019-06-20T09:20:52.754Z,101045.45
2019-06-20T09:23:22.402Z,101045.56
2019-06-20T09:25:53.278Z,101046.10
2019-06-20T09:28:22.747Z,101045.05
2019-06-20T09:30:53.556Z,101041.59
2019-06-20T09:33:23.170Z,101034.95
2019-06-20T09:35:53.996Z,101043.63
2019-06-20T09:38:25.082Z,101044.95
2019-06-20T09:40:54.842Z,101048.62
2019-06-20T09:43:27.814Z,101033.83
2019-06-20T09:45:56.091Z,101028.03
2019-06-20T09:48:27.980Z,101026.73
2019-06-20T09:50:58.532Z,101046.52
2019-06-20T09:53:28.819Z,101059.45
2019-06-20T09:55:58.053Z,101064.31
2019-06-20T09:58:29.201Z,101063.36
2019-06-20T10:00:58.592Z,101075.11
2019-06-20T10:03:27.281Z,101085.21
2019-06-20T10:05:57.722Z,101088.06
2019-06-20T10:08:26.967Z,101090.02
2019-06-20T10:10:56.325Z,101081.56
2019-06-20T10:13:25.625Z,101084.56
2019-06-20T10:15:55.672Z,101092.04
2019-06-20T10:18:24.945Z,101089.30
2019-06-20T10:20:54.128Z,101087.44
2019-06-20T10:23:23.364Z,101087.59
2019-06-20T10:25:53.836Z,101087.73
2019-06-20T10:28:23.335Z,101088.20
2019-06-20T10:30:53.353Z,101084.59
2019-06-20T10:33:22.661Z,101082.45
2019-06-20T10:35:53.743Z,101094.92
2019-06-20T10:38:22.941Z,101090.64
2019-06-20T10:40:53.230Z,101095.09
2019-06-20T10:43:24.933Z,101099.81
2019-06-20T10:45:54.241Z,101101.65
2019-06-20T10:48:24.122Z,101113.50
2019-06-20T10:50:54.934Z,101115.11
2019-06-20T10:53:24.616Z,101108.10
2019-06-20T10:55:53.865Z,101120.94
2019-06-20T10:58:23.052Z,101110.59
2019-06-20T11:00:52.281Z,101119.14
2019-06-20T11:03:21.435Z,101113.34
2019-06-20T11:05:51.136Z,101122.55
2019-06-20T11:08:22.205Z,101121.39
2019-06-20T11:10:51.436Z,101133.17
2019-06-20T11:13:20.743Z,101133.48
2019-06-20T11:15:51.181Z,101138.44
2019-06-20T11:18:20.553Z,101130.72
2019-06-20T11:20:49.790Z,101136.67
2019-06-20T11:23:20.810Z,101131.19
2019-06-20T11:25:51.665Z,101128.11
2019-06-20T11:28:24.529Z,101134.19
2019-06-20T11:31:00.459Z,101141.47
2019-06-20T11:33:30.882Z,101135.28
2019-06-20T11:36:03.607Z,101137.64
2019-06-20T11:38:33.024Z,101140.61
2019-06-20T11:41:04.060Z,101133.82
2019-06-20T11:43:34.609Z,101135.13
2019-06-20T11:46:06.088Z,101139.39
2019-06-20T11:48:36.774Z,101132.77
2019-06-20T11:51:06.456Z,101136.70
2019-06-20T11:53:36.570Z,101145.13
2019-06-20T11:56:09.098Z,101141.13
2019-06-20T11:58:38.439Z,101135.07
2019-06-20T12:01:07.706Z,101137.95
2019-06-20T12:03:39.611Z,101132.86
2019-06-20T12:06:09.956Z,101135.73
2019-06-20T12:08:40.698Z,101127.75
2019-06-20T12:11:09.993Z,101133.08
2019-06-20T12:13:40.420Z,101136.52
2019-06-20T12:16:15.482Z,101135.83
2019-06-20T12:18:45.191Z,101139.09
2019-06-20T12:21:14.385Z,101125.78
2019-06-20T12:23:47.385Z,101131.28
2019-06-20T12:26:16.290Z,101139.80
2019-06-20T12:28:47.126Z,101139.79
2019-06-20T12:31:19.758Z,101132.13
2019-06-20T12:33:49.552Z,101137.12
2019-06-20T12:36:22.572Z,101134.70
2019-06-20T12:38:57.252Z,101135.44
2019-06-20T12:41:29.711Z,101132.06
2019-06-20T12:43:59.832Z,101138.05
2019-06-20T12:46:30.662Z,101144.34
2019-06-20T12:49:03.487Z,101135.23
2019-06-20T12:51:37.309Z,101135.95
2019-06-20T12:54:08.048Z,101135.20
2019-06-20T12:56:38.656Z,101138.25
2019-06-20T12:59:08.993Z,101136.62
2019-06-20T13:01:42.558Z,101132.51
2019-06-20T13:04:10.350Z,101139.03
2019-06-20T13:06:42.247Z,101141.49
2019-06-20T13:09:11.994Z,101139.63
2019-06-20T13:11:42.426Z,101138.94
2019-06-20T13:14:15.973Z,101142.35
2019-06-20T13:16:46.045Z,101145.81
2019-06-20T13:19:15.567Z,101136.28
2019-06-20T13:21:46.492Z,101129.55
2019-06-20T13:24:15.915Z,101116.23
2019-06-20T13:26:48.898Z,101124.83
2019-06-20T13:29:17.797Z,101129.33
2019-06-20T13:32:01.905Z,101131.56
2019-06-20T13:34:20.760Z,101131.62
2019-06-20T13:36:53.525Z,101133.32
2019-06-20T13:39:23.452Z,101131.39
2019-06-20T13:41:54.086Z,101136.60
2019-06-20T13:44:23.994Z,101136.52
2019-06-20T13:46:53.698Z,101138.30
2019-06-20T13:49:26.639Z,101140.06
2019-06-20T13:52:00.463Z,101149.64
2019-06-20T13:54:29.742Z,101160.03
2019-06-20T13:57:02.319Z,101159.80
2019-06-20T13:59:31.594Z,101172.95
2019-06-20T14:02:06.625Z,101155.42
2019-06-20T14:04:34.401Z,101160.80
2019-06-20T14:07:04.298Z,101163.41
2019-06-20T14:09:33.535Z,101172.89
2019-06-20T14:12:02.163Z,101172.36
2019-06-20T14:14:31.799Z,101172.34
2019-06-20T14:17:04.954Z,101173.75
2019-06-20T14:19:36.100Z,101170.30
2019-06-20T14:22:08.215Z,101176.83
2019-06-20T14:24:43.428Z,101180.42
2019-06-20T14:27:12.651Z,101185.94
2019-06-20T14:29:43.715Z,101181.47
2019-06-20T14:32:22.230Z,101188.00
2019-06-20T14:34:47.283Z,101186.97
2019-06-20T14:37:18.510Z,101189.20
2019-06-20T14:39:47.699Z,101189.52
2019-06-20T14:42:17.036Z,101205.54
2019-06-20T14:44:47.654Z,101209.50
2019-06-20T14:47:17.016Z,101207.40
2019-06-20T14:49:45.562Z,101209.84
2019-06-20T14:52:15.044Z,101225.66
2019-06-20T14:54:46.296Z,101217.06
2019-06-20T14:57:16.931Z,101228.06
2019-06-20T14:59:48.371Z,101227.27
2019-06-20T15:02:18.004Z,101220.72
2019-06-20T15:04:49.810Z,101229.53
2019-06-20T15:07:19.422Z,101238.15
2019-06-20T15:09:51.370Z,101230.94
2019-06-20T15:12:20.684Z,101233.87
2019-06-20T15:14:51.394Z,101244.11
2019-06-20T15:17:21.676Z,101243.20
2019-06-20T15:19:51.432Z,101250.97
2019-06-20T15:22:20.699Z,101250.72
2019-06-20T15:24:53.222Z,101252.24
2019-06-20T15:27:23.312Z,101245.91
2019-06-20T15:29:54.445Z,101254.83
2019-06-20T15:32:24.078Z,101247.28
2019-06-20T15:34:53.351Z,101253.15
2019-06-20T15:37:25.239Z,101253.16
2019-06-20T15:39:55.428Z,101248.78
2019-06-20T15:42:24.763Z,101251.09
2019-06-20T15:44:54.001Z,101256.24
2019-06-20T15:47:23.215Z,101248.16
2019-06-20T15:49:52.624Z,101250.09
2019-06-20T15:52:21.305Z,101252.58
2019-06-20T15:54:50.551Z,101246.39
2019-06-20T15:57:22.218Z,101257.63
2019-06-20T15:59:51.529Z,101255.11
2019-06-20T16:02:20.059Z,101258.62
2019-06-20T16:04:49.765Z,101267.57
2019-06-20T16:07:20.305Z,101268.77
2019-06-20T16:09:49.580Z,101276.51
2019-06-20T16:12:19.112Z,101274.79
2019-06-20T16:14:48.804Z,101279.25
2019-06-20T16:19:46.421Z,101283.11
2019-06-20T16:22:15.643Z,101276.27
2019-06-20T16:24:45.949Z,101280.09
2019-06-20T16:27:17.180Z,101280.78
2019-06-20T16:29:46.411Z,101279.75
2019-06-20T16:32:15.656Z,101281.98
2019-06-20T16:34:46.429Z,101278.75
2019-06-20T16:37:15.766Z,101275.99
2019-06-20T16:39:44.393Z,101276.16
2019-06-20T16:42:13.548Z,101275.30
2019-06-20T16:44:42.801Z,101282.21
2019-06-20T16:47:11.491Z,101277.91
2019-06-20T16:49:40.751Z,101272.55
2019-06-20T16:52:09.274Z,101281.95
2019-06-20T16:54:41.181Z,101286.55
2019-06-20T16:57:11.501Z,101284.00
2019-06-20T16:59:40.792Z,101282.45
2019-06-20T17:02:11.222Z,101280.73
2019-06-20T17:04:42.292Z,101278.77
2019-06-20T17:07:11.471Z,101284.52
2019-06-20T17:09:43.336Z,101289.86
2019-06-20T17:12:12.667Z,101292.59
2019-06-20T17:14:41.346Z,101295.66
2019-06-20T17:17:10.639Z,101301.03
2019-06-20T17:19:42.041Z,101301.16
2019-06-20T17:22:11.135Z,101306.08
2019-06-20T17:24:40.325Z,101308.64
2019-06-20T17:27:10.035Z,101312.25
2019-06-20T17:29:39.295Z,101317.05
2019-06-20T17:32:08.546Z,101319.89
2019-06-20T17:34:37.805Z,101322.27
2019-06-20T17:37:07.339Z,101315.74
2019-06-20T17:39:37.066Z,101320.78
2019-06-20T17:42:06.666Z,101322.69
2019-06-20T17:44:37.287Z,101327.14
2019-06-20T17:47:06.542Z,101328.00
2019-06-20T17:49:35.936Z,101327.27
2019-06-20T17:52:04.553Z,101322.42
2019-06-20T17:54:33.775Z,101330.53
2019-06-20T17:57:04.965Z,101329.91
2019-06-20T17:59:34.533Z,101341.27
2019-06-20T18:02:24.108Z,101335.75
2019-06-20T18:04:55.028Z,101342.23
2019-06-20T18:07:27.429Z,101330.86
2019-06-20T18:09:56.735Z,101333.95
2019-06-20T18:12:26.853Z,101339.48
2019-06-20T18:14:56.067Z,101338.81
2019-06-20T18:17:25.382Z,101339.09
2019-06-20T18:19:54.970Z,101348.44
2019-06-20T18:22:24.487Z,101348.72
2019-06-20T18:24:53.701Z,101364.21
2019-06-20T18:27:24.839Z,101361.89
2019-06-20T18:29:55.186Z,101369.06
2019-06-20T18:32:25.745Z,101370.92
2019-06-20T18:35:01.742Z,101368.73
2019-06-20T18:37:31.785Z,101375.12
2019-06-20T18:40:02.752Z,101385.43
2019-06-20T18:42:35.530Z,101394.10
2019-06-20T18:45:08.662Z,101396.06
2019-06-20T18:47:38.957Z,101395.59
2019-06-20T18:50:08.639Z,101402.08
2019-06-20T18:52:50.962Z,101402.31
2019-06-20T18:55:10.394Z,101400.16
2019-06-20T18:57:42.062Z,101408.68
2019-06-20T19:00:12.965Z,101409.88
2019-06-20T19:02:43.342Z,101409.90
2019-06-20T19:05:15.017Z,101419.09
2019-06-20T19:07:44.989Z,101423.42
2019-06-20T19:10:19.425Z,101427.72
2019-06-20T19:12:48.790Z,101429.38
2019-06-20T19:15:24.282Z,101427.28
2019-06-20T19:17:55.217Z,101438.38
2019-06-20T19:20:25.353Z,101432.33
2019-06-20T19:23:00.046Z,101439.53
2019-06-20T19:25:40.000Z,101437.30
2019-06-20T19:28:09.344Z,101439.09
2019-06-20T19:30:57.855Z,101440.60
2019-06-20T19:33:27.085Z,101449.66
2019-06-20T19:35:56.295Z,101445.41
2019-06-20T19:38:25.484Z,101449.17
2019-06-20T19:40:54.670Z,101444.98
2019-06-20T19:43:23.859Z,101446.49
2019-06-20T19:45:53.049Z,101451.23
2019-06-20T19:48:22.247Z,101449.14
2019-06-20T19:50:51.481Z,101448.34
2019-06-20T19:53:20.700Z,101457.15
2019-06-20T19:55:49.872Z,101450.59
2019-06-20T19:58:19.081Z,101453.74
2019-06-20T20:00:48.292Z,101456.03
2019-06-20T20:03:17.529Z,101453.06
2019-06-20T20:05:46.829Z,101455.31
2019-06-20T20:08:16.159Z,101457.88
2019-06-20T20:10:47.152Z,101457.19
2019-06-20T20:13:17.069Z,101458.20
2019-06-20T20:15:46.868Z,101457.99
2019-06-20T20:18:16.387Z,101465.00
2019-06-20T20:20:47.526Z,101461.81
2019-06-20T20:23:16.734Z,101473.77
2019-06-20T20:25:49.585Z,101472.58
2019-06-20T20:28:18.815Z,101470.84
2019-06-20T20:30:48.033Z,101473.38
2019-06-20T20:33:18.435Z,101481.33
2019-06-20T20:35:54.137Z,101485.30
2019-06-20T20:38:23.409Z,101494.74
2019-06-20T20:40:59.223Z,101490.54
2019-06-20T20:43:28.459Z,101498.13
2019-06-20T20:45:57.625Z,101500.38
2019-06-20T20:48:27.067Z,101499.39
2019-06-20T20:50:56.222Z,101494.55
2019-06-20T20:53:25.485Z,101501.50
2019-06-20T20:55:57.698Z,101500.50
2019-06-20T20:58:27.139Z,101496.66
2019-06-20T21:01:05.275Z,101500.00
2019-06-20T21:03:34.523Z,101501.13
2019-06-20T21:06:05.561Z,101497.28
2019-06-20T21:08:35.123Z,101504.24
2019-06-20T21:11:04.397Z,101502.77
2019-06-20T21:13:37.347Z,101520.61
2019-06-20T21:16:10.916Z,101522.09
2019-06-20T21:18:40.633Z,101523.07
2019-06-20T21:21:10.041Z,101531.75
2019-06-20T21:23:42.484Z,101522.22
2019-06-20T21:26:12.609Z,101519.88
2019-06-20T21:28:41.743Z,101521.62
2019-06-20T21:31:10.882Z,101530.27
2019-06-20T21:33:39.992Z,101517.88
2019-06-20T21:36:09.497Z,101528.30
2019-06-20T21:38:37.931Z,101528.44
2019-06-20T21:41:07.001Z,101528.78
2019-06-20T21:43:39.331Z,101522.58
2019-06-20T21:46:25.627Z,101532.37
2019-06-20T21:48:54.798Z,101533.98
2019-06-20T21:51:30.280Z,101534.23
2019-06-20T21:53:59.687Z,101537.58
2019-06-20T21:56:28.802Z,101536.55
2019-06-20T21:59:02.316Z,101536.19
2019-06-20T22:01:43.784Z,101549.06
2019-06-20T22:04:19.235Z,101551.66
2019-06-20T22:06:48.368Z,101555.01
2019-06-20T22:09:17.489Z,101552.41
2019-06-20T22:11:46.624Z,101555.74
2019-06-20T22:14:16.059Z,101550.42
2019-06-20T22:16:45.180Z,101554.38
2019-06-20T22:19:14.331Z,101558.97
2019-06-20T22:21:43.472Z,101561.73
2019-06-20T22:24:12.643Z,101552.31
2019-06-20T22:26:41.779Z,101555.03
2019-06-20T22:29:10.897Z,101556.34
2019-06-20T22:31:40.024Z,101555.09
2019-06-20T22:34:09.161Z,101560.14
2019-06-20T22:36:40.555Z,101559.52
2019-06-20T22:39:09.837Z,101551.92
2019-06-20T22:41:38.982Z,101565.54
2019-06-20T22:44:08.104Z,101564.41
2019-06-20T22:46:37.222Z,101565.03
2019-06-20T22:49:06.355Z,101560.81
2019-06-20T22:51:35.493Z,101566.86
2019-06-20T22:54:04.614Z,101565.25
2019-06-20T22:56:33.747Z,101571.42
2019-06-20T22:59:02.878Z,101568.52
2019-06-20T23:01:31.994Z,101572.47
2019-06-20T23:04:01.128Z,101574.67
2019-06-20T23:06:30.252Z,101569.69
2019-06-20T23:08:59.366Z,101563.70
2019-06-20T23:11:28.502Z,101569.98
2019-06-20T23:13:57.611Z,101568.85
2019-06-20T23:16:26.732Z,101569.83
2019-06-20T23:18:55.858Z,101569.95
2019-06-20T23:21:25.045Z,101566.09
2019-06-20T23:23:54.151Z,101569.42
2019-06-20T23:26:23.357Z,101564.67
2019-06-20T23:29:10.285Z,101566.11
2019-06-20T23:31:39.416Z,101566.61
2019-06-20T23:34:08.538Z,101569.17
2019-06-20T23:36:37.648Z,101573.11
2019-06-20T23:39:07.158Z,101577.05
2019-06-20T23:41:35.532Z,101578.25
2019-06-20T23:44:04.667Z,101582.52
2019-06-20T23:46:33.821Z,101579.88
2019-06-20T23:49:02.943Z,101584.03
2019-06-20T23:51:33.718Z,101582.33
2019-06-20T23:54:02.883Z,101579.67
2019-06-20T23:56:31.994Z,101580.72
2019-06-20T23:59:01.112Z,101579.77
